sensor_id;sensor_type;location;lat;lon;timestamp;temperature;humidity
18175;DHT22;9212;50.894;16.714;2023-02-16T00:01:35;-1.50;99.90
18175;DHT22;9212;50.894;16.714;2023-02-16T00:04:11;-2.20;99.90
18175;DHT22;9212;50.894;16.714;2023-02-16T00:06:42;-2.20;99.90
18175;DHT22;9212;50.894;16.714;2023-02-16T00:09:09;-2.20;99.90
18175;DHT22;9212;50.894;16.714;2023-02-16T00:11:36;-1.00;99.90
18175;DHT22;9212;50.894;16.714;2023-02-16T00:14:22;-1.90;99.90
18175;DHT22;9212;50.894;16.714;2023-02-16T00:16:54;-1.80;99.90
18175;DHT22;9212;50.894;16.714;2023-02-16T00:19:24;-1.90;99.90
18175;DHT22;9212;50.894;16.714;2023-02-16T00:21:55;-2.00;99.90
18175;DHT22;9212;50.894;16.714;2023-02-16T00:24:23;-1.90;99.90
18175;DHT22;9212;50.894;16.714;2023-02-16T00:26:51;-1.60;99.90
18175;DHT22;9212;50.894;16.714;2023-02-16T00:29:24;-2.10;99.90
18175;DHT22;9212;50.894;16.714;2023-02-16T00:31:52;-2.40;99.90
18175;DHT22;9212;50.894;16.714;2023-02-16T00:34:31;-2.20;99.90
18175;DHT22;9212;50.894;16.714;2023-02-16T00:37:01;-2.20;99.90
18175;DHT22;9212;50.894;16.714;2023-02-16T00:41:59;-2.10;99.90
18175;DHT22;9212;50.894;16.714;2023-02-16T00:44:33;-1.90;99.90
18175;DHT22;9212;50.894;16.714;2023-02-16T00:47:02;-2.00;99.90
18175;DHT22;9212;50.894;16.714;2023-02-16T00:49:30;-1.80;99.90
18175;DHT22;9212;50.894;16.714;2023-02-16T00:52:01;-1.80;99.90
18175;DHT22;9212;50.894;16.714;2023-02-16T00:56:59;-1.90;99.90
18175;DHT22;9212;50.894;16.714;2023-02-16T01:01:53;-1.70;99.90
18175;DHT22;9212;50.894;16.714;2023-02-16T01:04:22;-1.60;99.90
18175;DHT22;9212;50.894;16.714;2023-02-16T01:06:49;-1.10;99.90
18175;DHT22;9212;50.894;16.714;2023-02-16T01:09:35;-1.50;99.90
18175;DHT22;9212;50.894;16.714;2023-02-16T01:12:20;-1.50;99.90
18175;DHT22;9212;50.894;16.714;2023-02-16T01:14:51;-1.30;99.90
18175;DHT22;9212;50.894;16.714;2023-02-16T01:17:18;-2.10;99.90
18175;DHT22;9212;50.894;16.714;2023-02-16T01:19:45;-1.30;99.90
18175;DHT22;9212;50.894;16.714;2023-02-16T01:27:12;-1.20;99.90
18175;DHT22;9212;50.894;16.714;2023-02-16T01:29:39;-1.00;99.90
18175;DHT22;9212;50.894;16.714;2023-02-16T01:32:09;-1.70;99.90
18175;DHT22;9212;50.894;16.714;2023-02-16T01:34:37;-1.00;99.90
18175;DHT22;9212;50.894;16.714;2023-02-16T01:39:31;-0.40;99.90
18175;DHT22;9212;50.894;16.714;2023-02-16T01:42:08;-0.20;99.90
18175;DHT22;9212;50.894;16.714;2023-02-16T01:44:42;-0.10;99.90
18175;DHT22;9212;50.894;16.714;2023-02-16T01:47:22;-1.00;99.90
18175;DHT22;9212;50.894;16.714;2023-02-16T01:52:24;-0.10;99.90
18175;DHT22;9212;50.894;16.714;2023-02-16T01:54:57;0.20;99.90
18175;DHT22;9212;50.894;16.714;2023-02-16T01:57:36;0.30;99.90
18175;DHT22;9212;50.894;16.714;2023-02-16T02:00:11;0.70;99.90
18175;DHT22;9212;50.894;16.714;2023-02-16T02:02:41;0.80;99.90
18175;DHT22;9212;50.894;16.714;2023-02-16T02:05:22;0.90;99.90
18175;DHT22;9212;50.894;16.714;2023-02-16T02:08:08;1.30;99.90
18175;DHT22;9212;50.894;16.714;2023-02-16T02:10:44;1.60;99.90
18175;DHT22;9212;50.894;16.714;2023-02-16T02:13:20;1.40;99.90
18175;DHT22;9212;50.894;16.714;2023-02-16T02:18:15;1.00;99.90
18175;DHT22;9212;50.894;16.714;2023-02-16T02:20:56;1.30;99.90
18175;DHT22;9212;50.894;16.714;2023-02-16T02:24:04;1.20;99.90
18175;DHT22;9212;50.894;16.714;2023-02-16T02:26:53;0.90;99.90
18175;DHT22;9212;50.894;16.714;2023-02-16T02:29:39;0.50;99.90
18175;DHT22;9212;50.894;16.714;2023-02-16T02:32:16;0.30;99.90
18175;DHT22;9212;50.894;16.714;2023-02-16T02:34:58;1.00;99.90
18175;DHT22;9212;50.894;16.714;2023-02-16T02:37:35;0.10;99.90
18175;DHT22;9212;50.894;16.714;2023-02-16T02:40:11;0.10;99.90
18175;DHT22;9212;50.894;16.714;2023-02-16T02:42:51;0.00;99.90
18175;DHT22;9212;50.894;16.714;2023-02-16T02:45:22;0.70;99.90
18175;DHT22;9212;50.894;16.714;2023-02-16T02:47:50;0.80;99.90
18175;DHT22;9212;50.894;16.714;2023-02-16T02:50:37;0.50;99.90
18175;DHT22;9212;50.894;16.714;2023-02-16T02:53:09;0.30;99.90
18175;DHT22;9212;50.894;16.714;2023-02-16T02:55:44;1.20;99.90
18175;DHT22;9212;50.894;16.714;2023-02-16T02:58:33;0.20;99.90
18175;DHT22;9212;50.894;16.714;2023-02-16T03:01:19;-0.10;99.90
18175;DHT22;9212;50.894;16.714;2023-02-16T03:03:48;-0.30;99.90
18175;DHT22;9212;50.894;16.714;2023-02-16T03:06:18;-0.30;99.90
18175;DHT22;9212;50.894;16.714;2023-02-16T03:08:49;-0.10;99.90
18175;DHT22;9212;50.894;16.714;2023-02-16T03:11:21;0.00;99.90
18175;DHT22;9212;50.894;16.714;2023-02-16T03:14:11;0.80;99.90
18175;DHT22;9212;50.894;16.714;2023-02-16T03:16:41;1.00;99.90
18175;DHT22;9212;50.894;16.714;2023-02-16T03:19:12;0.10;99.90
18175;DHT22;9212;50.894;16.714;2023-02-16T03:21:58;1.30;99.90
18175;DHT22;9212;50.894;16.714;2023-02-16T03:24:44;0.90;99.90
18175;DHT22;9212;50.894;16.714;2023-02-16T03:27:32;1.10;99.90
18175;DHT22;9212;50.894;16.714;2023-02-16T03:30:21;0.70;99.90
18175;DHT22;9212;50.894;16.714;2023-02-16T03:32:49;0.40;99.90
18175;DHT22;9212;50.894;16.714;2023-02-16T03:35:17;0.50;99.90
18175;DHT22;9212;50.894;16.714;2023-02-16T03:37:45;0.50;99.90
18175;DHT22;9212;50.894;16.714;2023-02-16T03:40:15;0.50;99.90
18175;DHT22;9212;50.894;16.714;2023-02-16T03:42:57;0.30;99.90
18175;DHT22;9212;50.894;16.714;2023-02-16T03:45:26;0.00;99.90
18175;DHT22;9212;50.894;16.714;2023-02-16T03:47:53;-0.20;99.90
18175;DHT22;9212;50.894;16.714;2023-02-16T03:50:21;-0.20;99.90
18175;DHT22;9212;50.894;16.714;2023-02-16T03:52:48;-0.30;99.90
18175;DHT22;9212;50.894;16.714;2023-02-16T03:55:15;-0.50;99.90
18175;DHT22;9212;50.894;16.714;2023-02-16T03:57:42;-0.50;99.90
18175;DHT22;9212;50.894;16.714;2023-02-16T04:00:11;-0.60;99.90
18175;DHT22;9212;50.894;16.714;2023-02-16T04:02:39;-0.40;99.90
18175;DHT22;9212;50.894;16.714;2023-02-16T04:05:07;-0.70;99.90
18175;DHT22;9212;50.894;16.714;2023-02-16T04:10:01;-0.50;99.90
18175;DHT22;9212;50.894;16.714;2023-02-16T04:12:28;-1.40;99.90
18175;DHT22;9212;50.894;16.714;2023-02-16T04:15:03;-0.90;99.90
18175;DHT22;9212;50.894;16.714;2023-02-16T04:17:31;-1.00;99.90
18175;DHT22;9212;50.894;16.714;2023-02-16T04:19:59;-0.80;99.90
18175;DHT22;9212;50.894;16.714;2023-02-16T04:22:26;-0.80;99.90
18175;DHT22;9212;50.894;16.714;2023-02-16T04:24:53;-0.90;99.90
18175;DHT22;9212;50.894;16.714;2023-02-16T04:29:47;-1.00;99.90
18175;DHT22;9212;50.894;16.714;2023-02-16T04:42:05;-1.10;99.90
18175;DHT22;9212;50.894;16.714;2023-02-16T04:44:32;-1.20;99.90
18175;DHT22;9212;50.894;16.714;2023-02-16T04:46:59;-1.10;99.90
18175;DHT22;9212;50.894;16.714;2023-02-16T04:51:53;-1.20;99.90
18175;DHT22;9212;50.894;16.714;2023-02-16T04:54:21;-1.30;99.90
18175;DHT22;9212;50.894;16.714;2023-02-16T04:59:16;-1.20;99.90
18175;DHT22;9212;50.894;16.714;2023-02-16T05:01:43;-1.10;99.90
18175;DHT22;9212;50.894;16.714;2023-02-16T05:04:10;-1.60;99.90
18175;DHT22;9212;50.894;16.714;2023-02-16T05:06:37;-1.20;99.90
18175;DHT22;9212;50.894;16.714;2023-02-16T05:09:05;-1.40;99.90
18175;DHT22;9212;50.894;16.714;2023-02-16T05:11:35;-1.30;99.90
18175;DHT22;9212;50.894;16.714;2023-02-16T05:14:21;-1.30;99.90
18175;DHT22;9212;50.894;16.714;2023-02-16T05:17:06;-1.20;99.90
18175;DHT22;9212;50.894;16.714;2023-02-16T05:19:34;-1.40;99.90
18175;DHT22;9212;50.894;16.714;2023-02-16T05:22:01;-1.20;99.90
18175;DHT22;9212;50.894;16.714;2023-02-16T05:26:57;-0.80;99.90
18175;DHT22;9212;50.894;16.714;2023-02-16T05:31:52;0.10;99.90
18175;DHT22;9212;50.894;16.714;2023-02-16T05:36:46;0.50;99.90
18175;DHT22;9212;50.894;16.714;2023-02-16T05:44:10;0.40;99.90
18175;DHT22;9212;50.894;16.714;2023-02-16T05:46:38;0.30;99.90
18175;DHT22;9212;50.894;16.714;2023-02-16T05:49:07;0.20;99.90
18175;DHT22;9212;50.894;16.714;2023-02-16T05:51:35;0.30;99.90
18175;DHT22;9212;50.894;16.714;2023-02-16T05:54:02;0.50;99.90
18175;DHT22;9212;50.894;16.714;2023-02-16T05:56:30;0.00;99.90
18175;DHT22;9212;50.894;16.714;2023-02-16T05:58:57;0.80;99.90
18175;DHT22;9212;50.894;16.714;2023-02-16T06:01:26;0.60;99.90
18175;DHT22;9212;50.894;16.714;2023-02-16T06:06:21;0.50;99.90
18175;DHT22;9212;50.894;16.714;2023-02-16T06:08:48;0.50;99.90
18175;DHT22;9212;50.894;16.714;2023-02-16T06:13:59;0.70;99.90
18175;DHT22;9212;50.894;16.714;2023-02-16T06:16:30;1.10;99.90
18175;DHT22;9212;50.894;16.714;2023-02-16T06:18:58;0.80;99.90
18175;DHT22;9212;50.894;16.714;2023-02-16T06:21:26;0.60;99.90
18175;DHT22;9212;50.894;16.714;2023-02-16T06:23:53;0.90;99.90
18175;DHT22;9212;50.894;16.714;2023-02-16T06:26:21;0.60;99.90
18175;DHT22;9212;50.894;16.714;2023-02-16T06:28:48;0.80;99.90
18175;DHT22;9212;50.894;16.714;2023-02-16T06:33:44;0.80;99.90
18175;DHT22;9212;50.894;16.714;2023-02-16T06:43:34;0.80;99.90
18175;DHT22;9212;50.894;16.714;2023-02-16T06:48:29;1.20;99.90
18175;DHT22;9212;50.894;16.714;2023-02-16T06:50:57;0.90;99.90
18175;DHT22;9212;50.894;16.714;2023-02-16T06:53:24;1.30;99.90
18175;DHT22;9212;50.894;16.714;2023-02-16T06:58:19;2.00;99.90
18175;DHT22;9212;50.894;16.714;2023-02-16T07:00:46;2.00;99.90
18175;DHT22;9212;50.894;16.714;2023-02-16T07:03:13;2.50;99.90
18175;DHT22;9212;50.894;16.714;2023-02-16T07:05:40;2.70;99.90
18175;DHT22;9212;50.894;16.714;2023-02-16T07:08:09;3.50;99.90
18175;DHT22;9212;50.894;16.714;2023-02-16T07:10:36;2.50;99.90
18175;DHT22;9212;50.894;16.714;2023-02-16T07:13:07;3.40;99.90
18175;DHT22;9212;50.894;16.714;2023-02-16T07:15:34;3.60;99.90
18175;DHT22;9212;50.894;16.714;2023-02-16T07:25:24;4.30;99.90
18175;DHT22;9212;50.894;16.714;2023-02-16T07:27:52;5.70;99.90
18175;DHT22;9212;50.894;16.714;2023-02-16T07:37:42;4.90;99.90
18175;DHT22;9212;50.894;16.714;2023-02-16T07:40:10;4.70;99.90
18175;DHT22;9212;50.894;16.714;2023-02-16T07:42:38;4.90;99.90
18175;DHT22;9212;50.894;16.714;2023-02-16T07:47:33;5.20;99.90
18175;DHT22;9212;50.894;16.714;2023-02-16T07:50:00;5.90;99.90
18175;DHT22;9212;50.894;16.714;2023-02-16T07:52:27;6.20;99.90
18175;DHT22;9212;50.894;16.714;2023-02-16T07:54:55;5.90;99.90
18175;DHT22;9212;50.894;16.714;2023-02-16T07:59:53;5.90;99.90
18175;DHT22;9212;50.894;16.714;2023-02-16T08:02:21;5.90;99.90
18175;DHT22;9212;50.894;16.714;2023-02-16T08:07:17;6.10;99.90
18175;DHT22;9212;50.894;16.714;2023-02-16T08:12:14;6.30;99.90
18175;DHT22;9212;50.894;16.714;2023-02-16T08:14:42;6.20;99.90
18175;DHT22;9212;50.894;16.714;2023-02-16T08:17:13;6.10;99.90
18175;DHT22;9212;50.894;16.714;2023-02-16T08:19:41;6.00;99.90
18175;DHT22;9212;50.894;16.714;2023-02-16T08:22:08;6.00;99.90
18175;DHT22;9212;50.894;16.714;2023-02-16T08:24:36;6.10;99.90
18175;DHT22;9212;50.894;16.714;2023-02-16T08:27:04;6.20;99.90
18175;DHT22;9212;50.894;16.714;2023-02-16T08:29:32;6.10;99.90
18175;DHT22;9212;50.894;16.714;2023-02-16T08:31:59;6.10;99.90
18175;DHT22;9212;50.894;16.714;2023-02-16T08:36:58;5.40;99.90
18175;DHT22;9212;50.894;16.714;2023-02-16T08:39:27;6.30;99.90
18175;DHT22;9212;50.894;16.714;2023-02-16T08:41:55;6.40;99.90
18175;DHT22;9212;50.894;16.714;2023-02-16T08:44:23;6.50;99.90
18175;DHT22;9212;50.894;16.714;2023-02-16T08:46:52;6.20;99.90
18175;DHT22;9212;50.894;16.714;2023-02-16T08:49:21;6.10;99.90
18175;DHT22;9212;50.894;16.714;2023-02-16T08:51:52;6.00;99.90
18175;DHT22;9212;50.894;16.714;2023-02-16T08:54:21;6.20;99.90
18175;DHT22;9212;50.894;16.714;2023-02-16T08:56:50;6.30;99.90
18175;DHT22;9212;50.894;16.714;2023-02-16T08:59:19;6.30;99.90
18175;DHT22;9212;50.894;16.714;2023-02-16T09:01:47;6.30;99.90
18175;DHT22;9212;50.894;16.714;2023-02-16T09:04:15;6.30;99.90
18175;DHT22;9212;50.894;16.714;2023-02-16T09:06:44;6.40;99.90
18175;DHT22;9212;50.894;16.714;2023-02-16T09:09:14;6.60;99.90
18175;DHT22;9212;50.894;16.714;2023-02-16T09:14:10;6.60;99.90
18175;DHT22;9212;50.894;16.714;2023-02-16T09:16:39;6.80;99.90
18175;DHT22;9212;50.894;16.714;2023-02-16T09:19:11;6.70;99.90
18175;DHT22;9212;50.894;16.714;2023-02-16T09:21:40;6.80;99.90
18175;DHT22;9212;50.894;16.714;2023-02-16T09:24:08;6.80;99.90
18175;DHT22;9212;50.894;16.714;2023-02-16T09:26:38;6.90;99.90
18175;DHT22;9212;50.894;16.714;2023-02-16T09:29:08;7.60;99.90
18175;DHT22;9212;50.894;16.714;2023-02-16T09:31:37;7.20;99.90
18175;DHT22;9212;50.894;16.714;2023-02-16T09:34:06;7.20;99.90
18175;DHT22;9212;50.894;16.714;2023-02-16T09:36:37;7.30;99.90
18175;DHT22;9212;50.894;16.714;2023-02-16T09:41:46;7.50;99.90
18175;DHT22;9212;50.894;16.714;2023-02-16T09:44:21;7.30;99.90
18175;DHT22;9212;50.894;16.714;2023-02-16T09:46:54;7.40;99.90
18175;DHT22;9212;50.894;16.714;2023-02-16T09:49:25;7.40;99.90
18175;DHT22;9212;50.894;16.714;2023-02-16T09:52:01;7.90;99.90
18175;DHT22;9212;50.894;16.714;2023-02-16T09:54:34;8.40;99.90
18175;DHT22;9212;50.894;16.714;2023-02-16T09:57:16;8.50;99.90
18175;DHT22;9212;50.894;16.714;2023-02-16T09:59:51;8.50;99.90
18175;DHT22;9212;50.894;16.714;2023-02-16T10:02:33;8.60;99.90
18175;DHT22;9212;50.894;16.714;2023-02-16T10:05:24;8.60;99.90
18175;DHT22;9212;50.894;16.714;2023-02-16T10:08:02;8.50;99.90
18175;DHT22;9212;50.894;16.714;2023-02-16T10:10:34;8.90;99.90
18175;DHT22;9212;50.894;16.714;2023-02-16T10:13:14;8.90;99.90
18175;DHT22;9212;50.894;16.714;2023-02-16T10:15:44;8.90;99.90
18175;DHT22;9212;50.894;16.714;2023-02-16T10:18:21;8.90;99.90
18175;DHT22;9212;50.894;16.714;2023-02-16T10:20:51;9.10;99.90
18175;DHT22;9212;50.894;16.714;2023-02-16T10:23:41;8.60;99.90
18175;DHT22;9212;50.894;16.714;2023-02-16T10:26:16;9.20;99.90
18175;DHT22;9212;50.894;16.714;2023-02-16T10:28:50;9.40;99.90
18175;DHT22;9212;50.894;16.714;2023-02-16T10:31:23;9.50;99.90
18175;DHT22;9212;50.894;16.714;2023-02-16T10:34:03;9.70;99.90
18175;DHT22;9212;50.894;16.714;2023-02-16T10:36:44;9.90;99.90
18175;DHT22;9212;50.894;16.714;2023-02-16T10:39:18;10.00;99.90
18175;DHT22;9212;50.894;16.714;2023-02-16T10:41:50;10.40;99.90
18175;DHT22;9212;50.894;16.714;2023-02-16T10:44:25;10.60;99.90
18175;DHT22;9212;50.894;16.714;2023-02-16T10:46:59;10.40;99.90
18175;DHT22;9212;50.894;16.714;2023-02-16T10:49:29;10.40;99.90
18175;DHT22;9212;50.894;16.714;2023-02-16T10:51:58;10.00;99.90
18175;DHT22;9212;50.894;16.714;2023-02-16T10:54:28;10.10;99.90
18175;DHT22;9212;50.894;16.714;2023-02-16T10:56:57;10.10;99.90
18175;DHT22;9212;50.894;16.714;2023-02-16T10:59:33;10.00;99.90
18175;DHT22;9212;50.894;16.714;2023-02-16T11:02:13;9.90;99.90
18175;DHT22;9212;50.894;16.714;2023-02-16T11:04:45;9.60;99.90
18175;DHT22;9212;50.894;16.714;2023-02-16T11:07:14;10.20;99.90
18175;DHT22;9212;50.894;16.714;2023-02-16T11:09:43;9.90;99.90
18175;DHT22;9212;50.894;16.714;2023-02-16T11:12:19;9.70;99.90
18175;DHT22;9212;50.894;16.714;2023-02-16T11:14:52;9.50;99.90
18175;DHT22;9212;50.894;16.714;2023-02-16T11:17:20;9.70;99.90
18175;DHT22;9212;50.894;16.714;2023-02-16T11:19:51;9.90;99.90
18175;DHT22;9212;50.894;16.714;2023-02-16T11:22:28;10.00;99.90
18175;DHT22;9212;50.894;16.714;2023-02-16T11:24:56;10.00;99.90
18175;DHT22;9212;50.894;16.714;2023-02-16T11:27:49;10.00;99.90
18175;DHT22;9212;50.894;16.714;2023-02-16T11:30:27;10.10;99.90
18175;DHT22;9212;50.894;16.714;2023-02-16T11:33:01;10.00;99.90
18175;DHT22;9212;50.894;16.714;2023-02-16T11:35:29;10.00;99.90
18175;DHT22;9212;50.894;16.714;2023-02-16T11:40:26;9.90;99.90
18175;DHT22;9212;50.894;16.714;2023-02-16T11:42:56;10.20;99.90
18175;DHT22;9212;50.894;16.714;2023-02-16T11:45:29;9.90;99.90
18175;DHT22;9212;50.894;16.714;2023-02-16T11:47:59;10.00;99.90
18175;DHT22;9212;50.894;16.714;2023-02-16T11:50:28;10.30;99.90
18175;DHT22;9212;50.894;16.714;2023-02-16T11:52:57;10.20;99.90
18175;DHT22;9212;50.894;16.714;2023-02-16T11:55:40;10.70;99.90
18175;DHT22;9212;50.894;16.714;2023-02-16T11:58:17;10.90;99.90
18175;DHT22;9212;50.894;16.714;2023-02-16T12:00:54;10.90;99.90
18175;DHT22;9212;50.894;16.714;2023-02-16T12:03:41;11.30;99.90
18175;DHT22;9212;50.894;16.714;2023-02-16T12:06:29;11.00;99.90
18175;DHT22;9212;50.894;16.714;2023-02-16T12:09:07;11.10;99.90
18175;DHT22;9212;50.894;16.714;2023-02-16T12:11:48;10.70;99.90
18175;DHT22;9212;50.894;16.714;2023-02-16T12:14:26;10.60;99.90
18175;DHT22;9212;50.894;16.714;2023-02-16T12:17:05;10.60;99.90
18175;DHT22;9212;50.894;16.714;2023-02-16T12:19:39;10.70;99.90
18175;DHT22;9212;50.894;16.714;2023-02-16T12:22:21;10.60;99.90
18175;DHT22;9212;50.894;16.714;2023-02-16T12:25:02;10.60;98.80
18175;DHT22;9212;50.894;16.714;2023-02-16T12:27:35;10.90;99.00
18175;DHT22;9212;50.894;16.714;2023-02-16T12:30:12;10.40;99.90
18175;DHT22;9212;50.894;16.714;2023-02-16T12:32:55;10.40;99.90
18175;DHT22;9212;50.894;16.714;2023-02-16T12:35:53;10.50;99.90
18175;DHT22;9212;50.894;16.714;2023-02-16T12:38:32;10.20;99.90
18175;DHT22;9212;50.894;16.714;2023-02-16T12:41:11;10.00;99.90
18175;DHT22;9212;50.894;16.714;2023-02-16T12:43:43;10.20;99.90
18175;DHT22;9212;50.894;16.714;2023-02-16T12:46:16;10.10;99.90
18175;DHT22;9212;50.894;16.714;2023-02-16T12:48:50;10.20;99.90
18175;DHT22;9212;50.894;16.714;2023-02-16T12:51:21;10.10;99.90
18175;DHT22;9212;50.894;16.714;2023-02-16T12:53:55;10.20;99.90
18175;DHT22;9212;50.894;16.714;2023-02-16T12:56:27;10.20;99.90
18175;DHT22;9212;50.894;16.714;2023-02-16T12:59:04;10.60;99.90
18175;DHT22;9212;50.894;16.714;2023-02-16T13:01:33;10.30;99.90
18175;DHT22;9212;50.894;16.714;2023-02-16T13:04:11;10.20;99.90
18175;DHT22;9212;50.894;16.714;2023-02-16T13:06:45;10.10;99.90
18175;DHT22;9212;50.894;16.714;2023-02-16T13:09:24;10.10;99.90
18175;DHT22;9212;50.894;16.714;2023-02-16T13:11:56;9.90;99.90
18175;DHT22;9212;50.894;16.714;2023-02-16T13:16:56;9.80;99.90
18175;DHT22;9212;50.894;16.714;2023-02-16T13:19:28;9.70;99.90
18175;DHT22;9212;50.894;16.714;2023-02-16T13:22:25;9.80;99.90
18175;DHT22;9212;50.894;16.714;2023-02-16T13:25:04;9.70;99.90
18175;DHT22;9212;50.894;16.714;2023-02-16T13:27:40;9.70;99.90
18175;DHT22;9212;50.894;16.714;2023-02-16T13:30:34;9.70;99.90
18175;DHT22;9212;50.894;16.714;2023-02-16T13:33:24;10.00;99.90
18175;DHT22;9212;50.894;16.714;2023-02-16T13:36:08;10.00;99.90
18175;DHT22;9212;50.894;16.714;2023-02-16T13:39:14;10.20;99.90
18175;DHT22;9212;50.894;16.714;2023-02-16T13:44:41;10.00;99.90
18175;DHT22;9212;50.894;16.714;2023-02-16T13:47:11;9.70;99.90
18175;DHT22;9212;50.894;16.714;2023-02-16T13:49:40;9.60;99.90
18175;DHT22;9212;50.894;16.714;2023-02-16T13:52:25;9.70;99.90
18175;DHT22;9212;50.894;16.714;2023-02-16T13:54:52;9.50;99.90
18175;DHT22;9212;50.894;16.714;2023-02-16T13:57:57;9.70;99.90
18175;DHT22;9212;50.894;16.714;2023-02-16T14:00:27;9.90;99.90
18175;DHT22;9212;50.894;16.714;2023-02-16T14:02:58;9.40;99.90
18175;DHT22;9212;50.894;16.714;2023-02-16T14:05:28;9.50;99.90
18175;DHT22;9212;50.894;16.714;2023-02-16T14:08:16;9.50;99.90
18175;DHT22;9212;50.894;16.714;2023-02-16T14:11:08;9.50;99.90
18175;DHT22;9212;50.894;16.714;2023-02-16T14:13:49;9.50;99.90
18175;DHT22;9212;50.894;16.714;2023-02-16T14:16:28;9.30;99.90
18175;DHT22;9212;50.894;16.714;2023-02-16T14:18:58;9.30;99.90
18175;DHT22;9212;50.894;16.714;2023-02-16T14:21:36;9.20;99.90
18175;DHT22;9212;50.894;16.714;2023-02-16T14:24:10;9.30;99.90
18175;DHT22;9212;50.894;16.714;2023-02-16T14:26:52;9.50;99.90
18175;DHT22;9212;50.894;16.714;2023-02-16T14:29:22;9.00;99.90
18175;DHT22;9212;50.894;16.714;2023-02-16T14:31:57;9.10;99.90
18175;DHT22;9212;50.894;16.714;2023-02-16T14:34:28;9.20;99.90
18175;DHT22;9212;50.894;16.714;2023-02-16T14:37:29;9.20;99.90
18175;DHT22;9212;50.894;16.714;2023-02-16T14:40:17;9.00;99.90
18175;DHT22;9212;50.894;16.714;2023-02-16T14:42:52;8.90;99.90
18175;DHT22;9212;50.894;16.714;2023-02-16T14:45:42;8.90;99.90
18175;DHT22;9212;50.894;16.714;2023-02-16T14:51:26;8.80;99.90
18175;DHT22;9212;50.894;16.714;2023-02-16T14:54:20;8.40;99.90
18175;DHT22;9212;50.894;16.714;2023-02-16T14:56:53;8.60;99.90
18175;DHT22;9212;50.894;16.714;2023-02-16T14:59:29;8.50;99.90
18175;DHT22;9212;50.894;16.714;2023-02-16T15:01:58;8.20;99.90
18175;DHT22;9212;50.894;16.714;2023-02-16T15:04:30;8.10;99.90
18175;DHT22;9212;50.894;16.714;2023-02-16T15:06:59;8.10;99.90
18175;DHT22;9212;50.894;16.714;2023-02-16T15:09:30;8.20;99.90
18175;DHT22;9212;50.894;16.714;2023-02-16T15:12:02;8.30;99.90
18175;DHT22;9212;50.894;16.714;2023-02-16T15:14:50;8.10;99.90
18175;DHT22;9212;50.894;16.714;2023-02-16T15:17:27;7.90;99.90
18175;DHT22;9212;50.894;16.714;2023-02-16T15:19:56;7.90;99.90
18175;DHT22;9212;50.894;16.714;2023-02-16T15:22:28;7.80;99.90
18175;DHT22;9212;50.894;16.714;2023-02-16T15:24:58;8.20;99.90
18175;DHT22;9212;50.894;16.714;2023-02-16T15:27:28;7.60;99.90
18175;DHT22;9212;50.894;16.714;2023-02-16T15:30:14;7.30;99.90
18175;DHT22;9212;50.894;16.714;2023-02-16T15:32:49;7.10;99.90
18175;DHT22;9212;50.894;16.714;2023-02-16T15:35:26;7.50;99.90
18175;DHT22;9212;50.894;16.714;2023-02-16T15:38:06;7.00;99.90
18175;DHT22;9212;50.894;16.714;2023-02-16T15:40:34;6.20;99.90
18175;DHT22;9212;50.894;16.714;2023-02-16T15:43:08;6.60;99.90
18175;DHT22;9212;50.894;16.714;2023-02-16T15:45:39;7.30;99.90
18175;DHT22;9212;50.894;16.714;2023-02-16T15:48:14;6.50;99.90
18175;DHT22;9212;50.894;16.714;2023-02-16T15:50:42;6.50;99.90
18175;DHT22;9212;50.894;16.714;2023-02-16T15:53:11;6.50;99.90
18175;DHT22;9212;50.894;16.714;2023-02-16T15:55:43;7.00;99.90
18175;DHT22;9212;50.894;16.714;2023-02-16T15:58:13;6.40;99.90
18175;DHT22;9212;50.894;16.714;2023-02-16T16:00:43;6.50;99.90
18175;DHT22;9212;50.894;16.714;2023-02-16T16:03:14;6.30;99.90
18175;DHT22;9212;50.894;16.714;2023-02-16T16:05:51;6.20;99.90
18175;DHT22;9212;50.894;16.714;2023-02-16T16:08:22;6.30;99.90
18175;DHT22;9212;50.894;16.714;2023-02-16T16:13:22;5.80;99.90
18175;DHT22;9212;50.894;16.714;2023-02-16T16:15:50;5.90;99.90
18175;DHT22;9212;50.894;16.714;2023-02-16T16:18:43;6.20;99.90
18175;DHT22;9212;50.894;16.714;2023-02-16T16:21:22;6.10;99.90
18175;DHT22;9212;50.894;16.714;2023-02-16T16:24:09;5.90;99.90
18175;DHT22;9212;50.894;16.714;2023-02-16T16:26:50;5.90;99.90
18175;DHT22;9212;50.894;16.714;2023-02-16T16:29:30;6.30;99.90
18175;DHT22;9212;50.894;16.714;2023-02-16T16:31:59;6.00;99.90
18175;DHT22;9212;50.894;16.714;2023-02-16T16:34:32;5.80;99.90
18175;DHT22;9212;50.894;16.714;2023-02-16T16:37:00;5.80;99.90
18175;DHT22;9212;50.894;16.714;2023-02-16T16:39:29;5.30;99.90
18175;DHT22;9212;50.894;16.714;2023-02-16T16:44:57;5.90;99.90
18175;DHT22;9212;50.894;16.714;2023-02-16T16:47:28;5.70;99.90
18175;DHT22;9212;50.894;16.714;2023-02-16T16:49:58;5.80;99.90
18175;DHT22;9212;50.894;16.714;2023-02-16T16:52:31;5.90;99.90
18175;DHT22;9212;50.894;16.714;2023-02-16T16:54:59;6.10;99.90
18175;DHT22;9212;50.894;16.714;2023-02-16T16:57:26;5.90;99.90
18175;DHT22;9212;50.894;16.714;2023-02-16T16:59:56;5.90;99.90
18175;DHT22;9212;50.894;16.714;2023-02-16T17:02:23;5.60;99.90
18175;DHT22;9212;50.894;16.714;2023-02-16T17:04:50;6.00;99.90
18175;DHT22;9212;50.894;16.714;2023-02-16T17:09:44;6.00;99.90
18175;DHT22;9212;50.894;16.714;2023-02-16T17:12:11;5.80;99.90
18175;DHT22;9212;50.894;16.714;2023-02-16T17:14:38;5.50;99.90
18175;DHT22;9212;50.894;16.714;2023-02-16T17:17:11;5.50;99.90
18175;DHT22;9212;50.894;16.714;2023-02-16T17:19:38;5.60;99.90
18175;DHT22;9212;50.894;16.714;2023-02-16T17:22:10;5.90;99.90
18175;DHT22;9212;50.894;16.714;2023-02-16T17:24:38;5.80;99.90
18175;DHT22;9212;50.894;16.714;2023-02-16T17:27:05;5.50;99.90
18175;DHT22;9212;50.894;16.714;2023-02-16T17:29:33;5.70;99.90
18175;DHT22;9212;50.894;16.714;2023-02-16T17:32:00;5.70;99.90
18175;DHT22;9212;50.894;16.714;2023-02-16T17:36:56;5.70;99.90
18175;DHT22;9212;50.894;16.714;2023-02-16T17:41:52;5.90;99.90
18175;DHT22;9212;50.894;16.714;2023-02-16T17:44:19;5.90;99.90
18175;DHT22;9212;50.894;16.714;2023-02-16T17:49:13;6.10;99.90
18175;DHT22;9212;50.894;16.714;2023-02-16T17:51:42;6.10;99.90
18175;DHT22;9212;50.894;16.714;2023-02-16T17:56:37;6.10;99.90
18175;DHT22;9212;50.894;16.714;2023-02-16T18:01:33;5.90;99.90
18175;DHT22;9212;50.894;16.714;2023-02-16T18:06:29;6.20;99.90
18175;DHT22;9212;50.894;16.714;2023-02-16T18:08:57;6.50;99.90
18175;DHT22;9212;50.894;16.714;2023-02-16T18:11:25;6.40;99.90
18175;DHT22;9212;50.894;16.714;2023-02-16T18:13:52;6.20;99.90
18175;DHT22;9212;50.894;16.714;2023-02-16T18:16:19;6.20;99.90
18175;DHT22;9212;50.894;16.714;2023-02-16T18:21:17;6.20;99.90
18175;DHT22;9212;50.894;16.714;2023-02-16T18:23:44;5.90;99.90
18175;DHT22;9212;50.894;16.714;2023-02-16T18:26:14;6.50;99.90
18175;DHT22;9212;50.894;16.714;2023-02-16T18:28:41;5.90;99.90
18175;DHT22;9212;50.894;16.714;2023-02-16T18:31:08;6.00;99.90
18175;DHT22;9212;50.894;16.714;2023-02-16T18:33:36;6.00;99.90
18175;DHT22;9212;50.894;16.714;2023-02-16T18:36:04;6.00;99.90